Buckingham, IA (50612)

3:50 PM CST on December 19, 2014 (GMT -0600)
Lanehaven Farms, Inc. | Change Station
CLOSE
Current Station
Personal Weather Station
Location: Waterloo, IA
Elevation: 950 ft
Nearby Weather Stations

Elev 950 ft 42.41 °N, 92.34 °W | Updated 11 minutes ago

Overcast
Overcast
29.6 °F
Feels Like 25 °F
N
4.0
Wind Variable Wind from SE
Gusts 10.0 mph

Today
High -- | Low -- °F
--% Chance of Precip.
Yesterday
High -- | Low -- °F
Precip. -- in
7:34 AM 4:39 PM
Waning Crescent, 6% visible
Pressure 30.25 in
Visibility 10.0 miles
Clouds Scattered Clouds 2000 ft
Scattered Clouds 2700 ft
Overcast 4000 ft
Windchill 25 °F
Dew Point 25 °F
Humidity 84%
Rainfall 0.00 in
Snow Depth Not available.
UV 0 out of 12
Pollen .10 out of 12
Air Quality Not available.
Flu Activity Not available.
SPECI KALO 192126Z 16009KT 10SM SCT020 SCT027 OVC040 M01/M05 A3025 RMK AO2 T10111050

More Conditions Fewer Conditions

Pressure 30.25 in
Visibility 10.0 miles
Clouds Scattered Clouds 2000 ft
Scattered Clouds 2700 ft
Overcast 4000 ft
Windchill 25 °F
Dew Point 25 °F
Humidity 84%
Rainfall 0.00 in
Snow Depth Not available.
UV 0 out of 12
Pollen .10 out of 12
Air Quality Not available.
Flu Activity Not available.
SPECI KALO 192126Z 16009KT 10SM SCT020 SCT027 OVC040 M01/M05 A3025 RMK AO2 T10111050

More Conditions Fewer Conditions

10-Day Weather Forecast

Almanac

Astronomy

Dec. 19, 2014 Rise Set
Actual Time
Civil Twilight
Nautical Twilight
Astronomical Twilight
Moon
Length of Visible Light
Length of Day
Tomorrow will be .
, % of the Moon is Illuminated

Today's Extremes

State Highs State Lows

Community

WunderPhotos

Upload Photos

1,779,060 photos uploaded!

WunderBlogs® & News

Nearby

Air Quality

  Air Quality AQ Index Pollutant
Not available.

Snow Depth

Station Depth Elevation

Earthquake Activity

City Distance Mag. Time & Date
Minimum magnitude displayed is 2.5.

Coastal Water Temperatures

Place Temperature

Nearby Weather Stations